createdAt,value
2018-11-26T00:00:46.241Z,25.07
2018-11-26T00:03:14.791Z,26.67
2018-11-26T00:05:43.450Z,26.40
2018-11-26T00:08:12.798Z,25.77
2018-11-26T00:10:52.366Z,25.97
2018-11-26T00:13:21.887Z,26.37
2018-11-26T00:15:50.480Z,27.03
2018-11-26T00:18:19.252Z,26.90
2018-11-26T00:20:47.890Z,27.63
2018-11-26T00:23:16.561Z,27.10
2018-11-26T00:25:45.235Z,27.73
2018-11-26T00:28:13.738Z,26.40
2018-11-26T00:30:42.357Z,27.57
2018-11-26T00:33:10.923Z,28.37
2018-11-26T00:35:39.445Z,27.97
2018-11-26T00:38:08.024Z,26.60
2018-11-26T00:40:36.557Z,27.10
2018-11-26T00:43:05.110Z,26.70
2018-11-26T00:45:33.671Z,26.13
2018-11-26T00:48:02.455Z,27.07
2018-11-26T00:50:30.990Z,26.10
2018-11-26T00:52:59.606Z,26.97
2018-11-26T00:55:28.307Z,27.30
2018-11-26T00:57:56.963Z,26.27
2018-11-26T01:00:25.647Z,26.40
2018-11-26T01:02:54.265Z,25.37
2018-11-26T01:05:40.121Z,24.63
2018-11-26T01:08:08.946Z,24.17
2018-11-26T01:10:37.591Z,25.47
2018-11-26T01:13:06.919Z,23.70
2018-11-26T01:15:35.528Z,23.93
2018-11-26T01:18:04.220Z,24.27
2018-11-26T01:20:32.778Z,23.63
2018-11-26T01:23:01.347Z,25.87
2018-11-26T01:25:29.932Z,22.93
2018-11-26T01:27:58.478Z,24.73
2018-11-26T01:30:27.379Z,25.17
2018-11-26T01:32:55.885Z,24.10
2018-11-26T01:35:24.430Z,24.47
2018-11-26T01:37:52.949Z,24.20
2018-11-26T01:40:29.820Z,25.43
2018-11-26T01:42:58.473Z,24.97
2018-11-26T01:45:27.234Z,26.33
2018-11-26T01:47:55.948Z,24.03
2018-11-26T01:50:24.493Z,23.43
2018-11-26T01:52:53.085Z,23.10
2018-11-26T01:55:21.634Z,23.60
2018-11-26T01:57:50.343Z,22.93
2018-11-26T02:00:22.259Z,24.00
2018-11-26T02:02:50.833Z,23.27
2018-11-26T02:05:19.418Z,23.43
2018-11-26T02:07:48.022Z,22.73
2018-11-26T02:10:17.553Z,22.63
2018-11-26T02:12:46.175Z,21.33
2018-11-26T02:15:38.333Z,22.40
2018-11-26T02:18:07.711Z,21.47
2018-11-26T02:20:36.265Z,20.43
2018-11-26T02:23:04.885Z,20.93
2018-11-26T02:25:33.712Z,21.83
2018-11-26T02:28:02.329Z,21.80
2018-11-26T02:30:31.122Z,20.87
2018-11-26T02:32:59.647Z,22.00
2018-11-26T02:35:28.171Z,21.27
2018-11-26T02:37:56.783Z,20.97
2018-11-26T02:40:29.101Z,21.10
2018-11-26T02:42:57.621Z,20.97
2018-11-26T02:45:26.327Z,20.37
2018-11-26T02:47:54.908Z,21.57
2018-11-26T02:50:23.497Z,20.10
2018-11-26T02:52:52.046Z,21.83
2018-11-26T02:55:20.602Z,21.80
2018-11-26T02:57:49.168Z,22.67
2018-11-26T03:00:17.838Z,21.27
2018-11-26T03:02:46.661Z,19.73
2018-11-26T03:05:30.866Z,21.03
2018-11-26T03:07:59.428Z,21.57
2018-11-26T03:10:27.942Z,22.33
2018-11-26T03:12:56.540Z,21.57
2018-11-26T03:15:25.108Z,21.00
2018-11-26T03:17:53.726Z,21.57
2018-11-26T03:20:22.248Z,21.30
2018-11-26T03:22:50.770Z,21.23
2018-11-26T03:25:19.326Z,21.97
2018-11-26T03:27:47.860Z,20.77
2018-11-26T03:30:18.385Z,20.67
2018-11-26T03:32:46.962Z,22.53
2018-11-26T03:35:15.494Z,21.67
2018-11-26T03:37:44.010Z,21.37
2018-11-26T03:40:13.428Z,21.33
2018-11-26T03:42:42.242Z,21.47
2018-11-26T03:45:13.117Z,21.50
2018-11-26T03:47:41.663Z,21.97
2018-11-26T03:50:10.980Z,22.47
2018-11-26T03:52:39.546Z,22.33
2018-11-26T03:55:09.496Z,23.07
2018-11-26T03:57:38.026Z,22.30
2018-11-26T04:00:12.223Z,21.33
2018-11-26T04:02:40.747Z,22.87
2018-11-26T04:05:10.080Z,23.17
2018-11-26T04:07:38.653Z,22.17
2018-11-26T04:10:09.655Z,22.00
2018-11-26T04:12:38.266Z,22.43
2018-11-26T04:15:09.558Z,21.53
2018-11-26T04:17:38.106Z,22.67
2018-11-26T04:20:07.540Z,21.37
2018-11-26T04:22:36.053Z,22.00
2018-11-26T04:25:04.886Z,22.03
2018-11-26T04:27:33.413Z,20.53
2018-11-26T04:30:01.947Z,22.77
2018-11-26T04:32:30.495Z,22.63
2018-11-26T04:34:59.202Z,22.83
2018-11-26T04:37:27.741Z,22.43
2018-11-26T04:39:56.264Z,21.53
2018-11-26T04:42:24.764Z,24.00
2018-11-26T04:44:53.301Z,22.40
2018-11-26T04:47:21.773Z,21.47
2018-11-26T04:49:50.320Z,21.27
2018-11-26T04:52:18.823Z,21.27
2018-11-26T04:54:47.422Z,22.10
2018-11-26T04:57:16.095Z,21.37
2018-11-26T04:59:44.660Z,23.00
2018-11-26T05:02:13.211Z,21.83
2018-11-26T05:04:41.811Z,20.83
2018-11-26T05:07:10.311Z,22.10
2018-11-26T05:09:38.871Z,22.83
2018-11-26T05:12:07.368Z,21.90
2018-11-26T05:14:35.892Z,20.87
2018-11-26T05:17:04.413Z,20.23
2018-11-26T05:19:33.951Z,21.73
2018-11-26T05:22:02.508Z,21.17
2018-11-26T05:24:31.049Z,20.57
2018-11-26T05:26:59.598Z,20.53
2018-11-26T05:29:28.131Z,20.37
2018-11-26T05:31:56.700Z,20.73
2018-11-26T05:34:25.276Z,20.40
2018-11-26T05:36:53.828Z,19.80
2018-11-26T05:39:22.328Z,19.10
2018-11-26T05:41:51.056Z,19.33
2018-11-26T05:44:19.556Z,20.10
2018-11-26T05:46:48.149Z,19.80
2018-11-26T05:49:16.700Z,20.13
2018-11-26T05:51:45.316Z,20.57
2018-11-26T05:54:13.869Z,19.47
2018-11-26T05:56:42.433Z,19.70
2018-11-26T05:59:10.931Z,19.27
2018-11-26T06:01:39.531Z,19.70
2018-11-26T06:04:08.188Z,20.30
2018-11-26T06:06:36.711Z,21.97
2018-11-26T06:09:08.764Z,21.77
2018-11-26T06:11:38.248Z,19.87
2018-11-26T06:14:07.128Z,19.63
2018-11-26T06:16:36.791Z,20.27
2018-11-26T06:19:05.788Z,18.43
2018-11-26T06:21:34.273Z,18.63
2018-11-26T06:24:02.817Z,19.23
2018-11-26T06:26:31.357Z,18.53
2018-11-26T06:28:59.897Z,18.57
2018-11-26T06:31:28.407Z,18.43
2018-11-26T06:33:56.929Z,17.53
2018-11-26T06:36:25.530Z,17.87
2018-11-26T06:38:54.017Z,17.67
2018-11-26T06:41:22.540Z,16.67
2018-11-26T06:43:51.143Z,19.10
2018-11-26T06:46:19.835Z,17.90
2018-11-26T06:48:48.319Z,19.97
2018-11-26T06:51:16.835Z,19.00
2018-11-26T06:53:45.370Z,18.53
2018-11-26T06:56:13.885Z,17.77
2018-11-26T06:58:42.364Z,16.73
2018-11-26T07:01:10.943Z,17.23
2018-11-26T07:03:39.501Z,17.10
2018-11-26T07:06:08.132Z,18.10
2018-11-26T07:08:37.483Z,17.33
2018-11-26T07:11:06.201Z,16.13
2018-11-26T07:13:34.742Z,17.03
2018-11-26T07:16:03.419Z,17.23
2018-11-26T07:18:31.989Z,17.37
2018-11-26T07:21:00.661Z,17.80
2018-11-26T07:23:29.323Z,17.13
2018-11-26T07:25:57.905Z,17.63
2018-11-26T07:28:26.497Z,17.67
2018-11-26T07:30:58.276Z,17.73
2018-11-26T07:33:27.697Z,18.10
2018-11-26T07:35:56.320Z,18.43
2018-11-26T07:38:25.008Z,20.53
2018-11-26T07:40:53.572Z,22.20
2018-11-26T07:43:22.102Z,20.40
2018-11-26T07:45:50.730Z,21.03
2018-11-26T07:48:19.296Z,20.07
2018-11-26T07:50:47.827Z,20.17
2018-11-26T07:53:16.439Z,20.53
2018-11-26T07:55:45.095Z,20.47
2018-11-26T07:58:13.657Z,20.93
2018-11-26T08:00:42.202Z,23.43
2018-11-26T08:03:10.767Z,21.13
2018-11-26T08:05:39.330Z,22.57
2018-11-26T08:08:07.908Z,22.87
2018-11-26T08:10:36.526Z,22.63
2018-11-26T08:13:05.554Z,22.47
2018-11-26T08:15:34.371Z,22.10
2018-11-26T08:18:02.943Z,20.90
2018-11-26T08:20:31.526Z,20.27
2018-11-26T08:23:00.114Z,21.53
2018-11-26T08:25:28.731Z,23.30
2018-11-26T08:27:57.335Z,23.07
2018-11-26T08:30:27.066Z,22.30
2018-11-26T08:32:58.666Z,20.97
2018-11-26T08:35:27.367Z,21.93
2018-11-26T08:38:01.222Z,23.33
2018-11-26T08:40:34.988Z,22.90
2018-11-26T08:43:09.562Z,22.53
2018-11-26T08:45:42.327Z,22.27
2018-11-26T08:48:15.906Z,21.70
2018-11-26T08:50:44.823Z,23.07
2018-11-26T08:53:13.462Z,22.67
2018-11-26T08:55:49.872Z,22.80
2018-11-26T08:58:18.523Z,23.67
2018-11-26T09:00:47.222Z,23.83
2018-11-26T09:03:21.922Z,23.57
2018-11-26T09:05:55.563Z,24.40
2018-11-26T09:08:24.395Z,23.77
2018-11-26T09:10:53.159Z,23.10
2018-11-26T09:13:21.795Z,23.90
2018-11-26T09:15:50.474Z,22.23
2018-11-26T09:18:19.228Z,23.73
2018-11-26T09:20:48.084Z,24.13
2018-11-26T09:23:16.814Z,25.10
2018-11-26T09:25:45.520Z,25.63
2018-11-26T09:28:14.212Z,24.70
2018-11-26T09:30:43.048Z,26.93
2018-11-26T09:33:11.821Z,25.67
2018-11-26T09:35:40.645Z,25.07
2018-11-26T09:38:09.638Z,24.37
2018-11-26T09:40:38.298Z,25.50
2018-11-26T09:43:07.692Z,25.30
2018-11-26T09:45:40.500Z,25.07
2018-11-26T09:48:05.029Z,24.17
2018-11-26T09:50:33.659Z,25.73
2018-11-26T09:53:02.306Z,25.33
2018-11-26T09:55:31.020Z,26.87
2018-11-26T09:57:59.729Z,26.60
2018-11-26T10:00:28.651Z,27.63
2018-11-26T10:02:57.344Z,26.00
2018-11-26T10:05:26.326Z,28.43
2018-11-26T10:07:55.148Z,27.97
2018-11-26T10:10:23.819Z,27.03
2018-11-26T10:12:52.621Z,27.87
2018-11-26T10:15:22.391Z,28.23
2018-11-26T10:17:51.208Z,28.57
2018-11-26T10:20:20.032Z,28.53
2018-11-26T10:22:49.375Z,28.47
2018-11-26T10:25:20.920Z,27.97
2018-11-26T10:27:49.609Z,29.77
2018-11-26T10:30:20.768Z,29.23
2018-11-26T10:32:50.297Z,27.13
2018-11-26T10:35:19.617Z,26.70
2018-11-26T10:37:48.406Z,30.10
2018-11-26T10:40:26.833Z,28.03
2018-11-26T10:42:55.759Z,28.27
2018-11-26T10:45:25.032Z,28.10
2018-11-26T10:47:53.835Z,27.83
2018-11-26T10:50:24.301Z,29.03
2018-11-26T10:52:54.226Z,29.47
2018-11-26T10:55:24.219Z,27.03
2018-11-26T10:57:53.006Z,28.53
2018-11-26T11:00:26.911Z,29.50
2018-11-26T11:02:55.869Z,29.87
2018-11-26T11:05:24.279Z,28.80
2018-11-26T11:07:53.040Z,30.80
2018-11-26T11:10:25.759Z,29.60
2018-11-26T11:12:54.429Z,29.50
2018-11-26T11:15:23.122Z,29.87
2018-11-26T11:17:51.668Z,28.63
2018-11-26T11:20:21.518Z,28.67
2018-11-26T11:22:50.108Z,29.77
2018-11-26T11:25:19.304Z,29.37
2018-11-26T11:27:48.033Z,28.87
2018-11-26T11:30:22.685Z,29.53
2018-11-26T11:32:51.326Z,29.13
2018-11-26T11:35:20.030Z,29.57
2018-11-26T11:37:49.522Z,27.93
2018-11-26T11:40:20.199Z,25.73
2018-11-26T11:42:49.002Z,27.53
2018-11-26T11:45:17.720Z,25.63
2018-11-26T11:47:46.370Z,25.77
2018-11-26T11:50:16.181Z,26.57
2018-11-26T11:52:45.159Z,27.30
2018-11-26T11:55:18.711Z,26.63
2018-11-26T11:57:47.445Z,27.03
2018-11-26T12:00:25.607Z,26.53
2018-11-26T12:02:55.632Z,27.10
2018-11-26T12:05:24.314Z,25.67
2018-11-26T12:07:53.023Z,27.23
2018-11-26T12:10:21.858Z,29.63
2018-11-26T12:12:50.608Z,30.23
2018-11-26T12:15:19.362Z,29.67
2018-11-26T12:17:48.903Z,29.27
2018-11-26T12:20:17.647Z,29.93
2018-11-26T12:22:46.606Z,30.70
2018-11-26T12:25:17.468Z,29.90
2018-11-26T12:27:46.158Z,31.40
2018-11-26T12:30:22.843Z,31.37
2018-11-26T12:32:51.809Z,32.00
2018-11-26T12:35:20.456Z,33.03
2018-11-26T12:37:49.329Z,32.07
2018-11-26T12:40:22.208Z,34.47
2018-11-26T12:42:52.206Z,34.27
2018-11-26T12:45:24.161Z,33.53
2018-11-26T12:47:52.902Z,33.40
2018-11-26T12:50:21.660Z,31.87
2018-11-26T12:52:50.392Z,34.17
2018-11-26T12:55:20.084Z,31.97
2018-11-26T12:57:50.204Z,32.77
2018-11-26T13:00:26.629Z,32.37
2018-11-26T13:02:57.219Z,31.10
2018-11-26T13:05:26.008Z,31.30
2018-11-26T13:07:54.763Z,31.83
2018-11-26T13:10:24.080Z,33.23
2018-11-26T13:12:53.395Z,31.70
2018-11-26T13:15:23.468Z,31.77
2018-11-26T13:17:53.399Z,32.97
2018-11-26T13:20:25.799Z,31.00
2018-11-26T13:22:55.020Z,32.97
2018-11-26T13:25:25.815Z,33.13
2018-11-26T13:27:56.326Z,32.33
2018-11-26T13:30:27.330Z,32.83
2018-11-26T13:32:57.238Z,31.60
2018-11-26T13:35:26.242Z,29.80
2018-11-26T13:37:54.994Z,28.00
2018-11-26T13:40:23.685Z,27.53
2018-11-26T13:42:52.667Z,26.60
2018-11-26T13:45:24.337Z,26.70
2018-11-26T13:47:53.080Z,23.93
2018-11-26T13:50:23.105Z,24.23
2018-11-26T13:52:51.864Z,23.57
2018-11-26T13:55:20.653Z,24.83
2018-11-26T13:57:49.436Z,23.60
2018-11-26T14:00:18.216Z,24.30
2018-11-26T14:02:46.906Z,22.93
2018-11-26T14:05:16.677Z,23.23
2018-11-26T14:07:46.110Z,23.47
2018-11-26T14:10:18.927Z,23.83
2018-11-26T14:12:49.334Z,23.63
2018-11-26T14:15:18.066Z,23.33
2018-11-26T14:17:47.750Z,23.67
2018-11-26T14:20:16.993Z,24.87
2018-11-26T14:22:45.808Z,22.63
2018-11-26T14:25:15.557Z,24.33
2018-11-26T14:27:45.008Z,24.03
2018-11-26T14:30:17.687Z,24.97
2018-11-26T14:32:46.529Z,24.73
2018-11-26T14:35:15.365Z,23.57
2018-11-26T14:37:44.469Z,24.73
2018-11-26T14:40:15.859Z,23.30
2018-11-26T14:42:44.533Z,25.43
2018-11-26T14:45:13.885Z,25.27
2018-11-26T14:47:44.068Z,25.00
2018-11-26T14:50:20.962Z,25.43
2018-11-26T14:55:42.290Z,23.37
2018-11-26T14:58:10.885Z,25.93
2018-11-26T15:00:39.491Z,26.43
2018-11-26T15:03:08.479Z,26.50
2018-11-26T15:05:37.047Z,25.17
2018-11-26T15:08:05.741Z,25.70
2018-11-26T15:10:34.520Z,25.23
2018-11-26T15:13:03.210Z,26.53
2018-11-26T15:15:31.846Z,26.03
2018-11-26T15:18:00.410Z,25.97
2018-11-26T15:20:29.988Z,25.90
2018-11-26T15:22:59.639Z,26.57
2018-11-26T15:25:30.183Z,27.20
2018-11-26T15:28:00.098Z,26.97
2018-11-26T15:30:28.769Z,28.23
2018-11-26T15:32:57.584Z,26.10
2018-11-26T15:35:26.198Z,27.40
2018-11-26T15:37:55.061Z,26.43
2018-11-26T15:40:23.598Z,26.43
2018-11-26T15:42:52.162Z,24.70
2018-11-26T15:45:26.286Z,27.03
2018-11-26T15:47:56.151Z,27.17
2018-11-26T15:50:24.656Z,23.53
2018-11-26T15:52:53.219Z,25.23
2018-11-26T15:55:22.132Z,23.87
2018-11-26T15:57:51.164Z,23.40
2018-11-26T16:00:21.633Z,26.03
2018-11-26T16:02:50.407Z,25.63
2018-11-26T16:05:27.832Z,27.33
2018-11-26T16:07:59.711Z,27.80
2018-11-26T16:10:28.187Z,27.57
2018-11-26T16:12:58.054Z,26.90
2018-11-26T16:15:28.837Z,25.10
2018-11-26T16:17:58.848Z,23.87
2018-11-26T16:20:27.909Z,24.53
2018-11-26T16:22:57.434Z,24.10
2018-11-26T16:25:26.116Z,27.20
2018-11-26T16:27:54.882Z,27.73
2018-11-26T16:30:23.402Z,26.30
2018-11-26T16:32:58.161Z,30.13
2018-11-26T16:35:30.848Z,33.93
2018-11-26T16:37:59.484Z,34.53
2018-11-26T16:40:27.965Z,32.33
2018-11-26T16:42:56.505Z,32.60
2018-11-26T16:45:26.055Z,32.17
2018-11-26T16:47:55.347Z,31.67
2018-11-26T16:50:25.150Z,31.60
2018-11-26T16:52:53.689Z,33.97
2018-11-26T16:55:22.254Z,32.97
2018-11-26T16:57:51.206Z,30.53
2018-11-26T17:00:24.462Z,29.30
2018-11-26T17:02:55.127Z,32.73
2018-11-26T17:05:26.844Z,28.37
2018-11-26T17:07:55.429Z,30.20
2018-11-26T17:10:23.977Z,32.60
2018-11-26T17:12:52.482Z,30.40
2018-11-26T17:15:20.993Z,31.07
2018-11-26T17:17:49.563Z,32.30
2018-11-26T17:20:18.352Z,31.53
2018-11-26T17:22:46.935Z,33.43
2018-11-26T17:25:16.393Z,37.53
2018-11-26T17:27:45.294Z,34.60
2018-11-26T17:30:18.993Z,35.70
2018-11-26T17:32:48.761Z,34.50
2018-11-26T17:35:17.641Z,34.50
2018-11-26T17:37:46.194Z,32.77
2018-11-26T17:40:17.731Z,30.77
2018-11-26T17:42:46.260Z,32.70
2018-11-26T17:45:15.359Z,33.53
2018-11-26T17:47:45.207Z,34.30
2018-11-26T17:50:16.142Z,31.90
2018-11-26T17:52:44.677Z,32.63
2018-11-26T17:55:13.315Z,29.77
2018-11-26T17:57:41.802Z,28.97
2018-11-26T18:00:20.084Z,33.00
2018-11-26T18:02:48.608Z,33.20
2018-11-26T18:05:24.997Z,29.57
2018-11-26T18:08:01.030Z,33.40
2018-11-26T18:10:29.605Z,28.63
2018-11-26T18:12:58.142Z,32.77
2018-11-26T18:15:26.777Z,33.23
2018-11-26T18:17:55.246Z,29.73
2018-11-26T18:20:23.798Z,32.30
2018-11-26T18:22:53.369Z,27.73
2018-11-26T18:25:22.689Z,34.90
2018-11-26T18:27:55.860Z,31.70
2018-11-26T18:30:31.245Z,30.83
2018-11-26T18:32:59.837Z,29.37
2018-11-26T18:35:28.302Z,26.80
2018-11-26T18:37:56.866Z,34.93
2018-11-26T18:40:25.484Z,30.13
2018-11-26T18:42:54.044Z,29.90
2018-11-26T18:45:52.823Z,33.87
2018-11-26T18:48:22.445Z,31.93
2018-11-26T18:50:49.934Z,35.47
2018-11-26T18:53:18.464Z,32.40
2018-11-26T18:55:47.178Z,31.63
2018-11-26T18:58:15.784Z,32.87
2018-11-26T19:01:01.216Z,29.70
2018-11-26T19:03:29.716Z,27.37
2018-11-26T19:05:58.545Z,33.10
2018-11-26T19:08:27.321Z,29.80
2018-11-26T19:10:58.269Z,26.83
2018-11-26T19:13:36.584Z,27.33
2018-11-26T19:16:16.353Z,31.07
2018-11-26T19:18:44.911Z,27.07
2018-11-26T19:21:13.438Z,27.10
2018-11-26T19:23:42.007Z,31.10
2018-11-26T19:26:10.561Z,27.70
2018-11-26T19:28:39.091Z,33.57
2018-11-26T19:31:07.899Z,29.97
2018-11-26T19:33:36.459Z,28.37
2018-11-26T19:36:05.101Z,27.33
2018-11-26T19:38:33.596Z,28.50
2018-11-26T19:41:02.119Z,29.60
2018-11-26T19:43:30.621Z,31.37
2018-11-26T19:45:59.181Z,29.47
2018-11-26T19:48:27.724Z,32.10
2018-11-26T19:50:56.264Z,31.83
2018-11-26T19:53:24.816Z,34.77
2018-11-26T19:55:53.333Z,29.70
2018-11-26T19:58:21.933Z,35.00
2018-11-26T20:00:50.447Z,27.50
2018-11-26T20:03:24.668Z,34.47
2018-11-26T20:06:02.014Z,35.20
2018-11-26T20:08:31.617Z,37.33
2018-11-26T20:11:00.168Z,38.30
2018-11-26T20:13:28.942Z,39.97
2018-11-26T20:15:57.579Z,39.70
2018-11-26T20:18:28.572Z,37.23
2018-11-26T20:20:57.227Z,37.03
2018-11-26T20:23:25.947Z,37.50
2018-11-26T20:25:54.489Z,32.87
2018-11-26T20:28:23.024Z,36.37
2018-11-26T20:30:51.690Z,30.70
2018-11-26T20:33:20.259Z,37.53
2018-11-26T20:35:48.807Z,37.17
2018-11-26T20:38:17.358Z,35.37
2018-11-26T20:40:45.907Z,32.57
2018-11-26T20:43:15.072Z,33.83
2018-11-26T20:45:45.429Z,36.27
2018-11-26T20:48:13.994Z,34.97
2018-11-26T20:50:44.627Z,33.87
2018-11-26T20:53:13.190Z,31.73
2018-11-26T20:55:41.803Z,36.03
2018-11-26T20:58:10.367Z,36.67
2018-11-26T21:00:39.987Z,34.57
2018-11-26T21:03:09.887Z,37.50
2018-11-26T21:05:38.915Z,33.43
2018-11-26T21:08:07.531Z,33.53
2018-11-26T21:10:36.278Z,34.60
2018-11-26T21:13:04.857Z,30.53
2018-11-26T21:15:33.430Z,34.77
2018-11-26T21:18:04.757Z,31.87
2018-11-26T21:20:36.053Z,34.97
2018-11-26T21:23:06.806Z,28.53
2018-11-26T21:25:35.346Z,33.13
2018-11-26T21:28:03.899Z,33.27
2018-11-26T21:30:32.613Z,32.53
2018-11-26T21:33:01.172Z,29.63
2018-11-26T21:35:29.726Z,29.40
2018-11-26T21:37:58.249Z,32.03
2018-11-26T21:40:26.789Z,28.33
2018-11-26T21:42:55.366Z,33.87
2018-11-26T21:46:27.431Z,28.17
2018-11-26T21:48:55.980Z,28.60
2018-11-26T21:51:24.560Z,33.83
2018-11-26T21:53:53.060Z,37.60
2018-11-26T21:56:21.588Z,34.47
2018-11-26T21:58:50.062Z,32.67
2018-11-26T22:01:18.606Z,33.47
2018-11-26T22:03:47.082Z,33.60
2018-11-26T22:06:15.617Z,36.20
2018-11-26T22:08:44.142Z,36.27
2018-11-26T22:11:12.602Z,34.53
2018-11-26T22:13:41.121Z,30.00
2018-11-26T22:16:09.692Z,32.77
2018-11-26T22:18:38.202Z,32.97
2018-11-26T22:21:06.801Z,31.67
2018-11-26T22:23:35.443Z,29.90
2018-11-26T22:26:03.973Z,31.47
2018-11-26T22:28:32.454Z,30.87
2018-11-26T22:31:00.975Z,30.70
2018-11-26T22:33:30.353Z,29.90
2018-11-26T22:35:58.924Z,29.13
2018-11-26T22:38:27.409Z,30.53
2018-11-26T22:40:55.935Z,30.60
2018-11-26T22:43:24.467Z,30.67
2018-11-26T22:45:53.057Z,30.73
2018-11-26T22:48:52.123Z,28.53
2018-11-26T22:51:20.841Z,29.50
2018-11-26T22:53:49.364Z,28.10
2018-11-26T22:56:17.903Z,32.20
2018-11-26T22:58:46.408Z,34.90
2018-11-26T23:01:14.975Z,33.07
2018-11-26T23:03:43.634Z,29.13
2018-11-26T23:06:12.916Z,31.43
2018-11-26T23:08:41.498Z,30.30
2018-11-26T23:11:10.337Z,31.60
2018-11-26T23:13:38.854Z,32.03
2018-11-26T23:16:07.990Z,27.33
2018-11-26T23:18:39.620Z,25.27
2018-11-26T23:21:08.116Z,28.13
2018-11-26T23:23:36.589Z,32.30
2018-11-26T23:26:05.204Z,28.03
2018-11-26T23:28:33.736Z,26.83
2018-11-26T23:31:02.254Z,26.90
2018-11-26T23:33:30.724Z,34.50
2018-11-26T23:35:59.216Z,32.37
2018-11-26T23:38:27.767Z,30.27
2018-11-26T23:40:56.340Z,31.40
2018-11-26T23:43:24.928Z,29.30
2018-11-26T23:45:53.490Z,31.13
2018-11-26T23:48:22.019Z,33.07
2018-11-26T23:50:50.585Z,33.33
2018-11-26T23:53:19.060Z,34.33
2018-11-26T23:55:47.901Z,34.40
2018-11-26T23:58:16.412Z,37.33
